Time;durP1;ratioP1;P1;durP2;ratioP2;P2;SDS_P1;SDS_P2;PMS_P1;PMS_P2;Temp;Humidity;BMP_temperature;BMP_pressure;BME280_temperature;BME280_humidity;BME280_pressure;Samples;Min_cycle;Max_cycle;Signal;HPM_P1;HPM_P2
2022/08/05 00:00:07;;;;;;;;;;;18.00;99.90;;;;;;4959444;28;19948;-80
2022/08/05 00:02:36;;;;;;;;;;;18.00;99.90;;;;;;4968727;28;20280;-81
2022/08/05 00:05:02;;;;;;;;;;;18.00;99.90;;;;;;4962150;28;20315;-80
2022/08/05 00:07:28;;;;;;;;;;;18.00;99.90;;;;;;4973817;28;19927;-81
2022/08/05 00:09:53;;;;;;;;;;;18.00;99.90;;;;;;4957950;28;19960;-80
2022/08/05 00:12:19;;;;;;;;;;;17.90;99.90;;;;;;4969948;28;20525;-80
2022/08/05 00:17:27;;;;;;;;;;;17.90;99.90;;;;;;5403716;23;19925;-81
2022/08/05 00:19:53;;;;;;;;;;;17.90;99.90;;;;;;4995487;28;19925;-80
2022/08/05 00:27:59;;;;;;;;;;;17.90;99.90;;;;;;5012231;28;19925;-81
2022/08/05 00:30:25;;;;;;;;;;;17.90;99.90;;;;;;4976491;28;19929;-80
2022/08/05 00:32:51;;;;;;;;;;;17.90;99.90;;;;;;4976411;28;19937;-81
2022/08/05 00:35:17;;;;;;;;;;;17.80;99.90;;;;;;4978057;28;20024;-81
2022/08/05 00:37:43;;;;;;;;;;;17.90;99.90;;;;;;4975146;28;19932;-81
2022/08/05 00:40:09;;;;;;;;;;;17.80;99.90;;;;;;4977043;28;19979;-80
2022/08/05 00:42:54;;;;;;;;;;;17.80;99.90;;;;;;4971899;28;19968;-80
2022/08/05 00:45:20;;;;;;;;;;;17.80;99.90;;;;;;4973678;28;19925;-81
2022/08/05 00:47:46;;;;;;;;;;;17.70;99.90;;;;;;4983882;28;19931;-80
2022/08/05 00:50:12;;;;;;;;;;;17.70;99.90;;;;;;4964061;28;19948;-81
2022/08/05 00:52:44;;;;;;;;;;;17.70;99.90;;;;;;4983115;28;19922;-81
2022/08/05 00:55:11;;;;;;;;;;;17.60;99.90;;;;;;4974914;28;20028;-80
2022/08/05 00:57:36;;;;;;;;;;;17.60;99.90;;;;;;4980048;28;19932;-81
2022/08/05 01:00:03;;;;;;;;;;;17.60;99.90;;;;;;4980369;28;19988;-80
2022/08/05 01:02:32;;;;;;;;;;;17.60;99.90;;;;;;4995066;28;20020;-81
2022/08/05 01:04:58;;;;;;;;;;;17.60;99.90;;;;;;4985409;28;20024;-81
2022/08/05 01:07:24;;;;;;;;;;;17.60;99.90;;;;;;4995610;28;20697;-81
2022/08/05 01:09:51;;;;;;;;;;;17.60;99.90;;;;;;4973561;28;19932;-81
2022/08/05 01:12:19;;;;;;;;;;;17.60;99.90;;;;;;4984721;28;19925;-82
2022/08/05 01:14:54;;;;;;;;;;;17.60;99.90;;;;;;5017608;28;19929;-80
2022/08/05 01:17:25;;;;;;;;;;;17.50;99.90;;;;;;4977556;28;19929;-79
2022/08/05 01:19:58;;;;;;;;;;;17.60;99.90;;;;;;4975296;28;19930;-80
2022/08/05 01:22:39;;;;;;;;;;;17.60;99.90;;;;;;4992293;28;19972;-81
2022/08/05 01:25:14;;;;;;;;;;;17.60;99.90;;;;;;4974643;28;20300;-81
2022/08/05 01:27:47;;;;;;;;;;;17.60;99.90;;;;;;4990687;28;19965;-81
2022/08/05 01:30:13;;;;;;;;;;;17.70;99.90;;;;;;4973810;28;19933;-80
2022/08/05 01:32:40;;;;;;;;;;;17.70;99.90;;;;;;4997767;28;19992;-81
2022/08/05 01:35:12;;;;;;;;;;;17.70;99.90;;;;;;4977314;28;20994;-82
2022/08/05 01:37:46;;;;;;;;;;;17.70;99.90;;;;;;4995405;28;19925;-81
2022/08/05 01:40:13;;;;;;;;;;;17.60;99.90;;;;;;4989946;28;19926;-81
2022/08/05 01:42:40;;;;;;;;;;;17.60;99.90;;;;;;4990814;28;19930;-81
2022/08/05 01:45:06;;;;;;;;;;;17.60;99.90;;;;;;4973690;28;19987;-81
2022/08/05 01:47:33;;;;;;;;;;;17.60;99.90;;;;;;4982015;28;19932;-81
2022/08/05 01:50:00;;;;;;;;;;;17.60;99.90;;;;;;4999455;28;19921;-81
2022/08/05 01:52:26;;;;;;;;;;;17.60;99.90;;;;;;4992653;28;19976;-81
2022/08/05 01:54:56;;;;;;;;;;;17.60;99.90;;;;;;4987137;28;19990;-81
2022/08/05 01:57:31;;;;;;;;;;;17.60;99.90;;;;;;4975738;28;20081;-81
2022/08/05 02:00:00;;;;;;;;;;;17.60;99.90;;;;;;4980140;28;19973;-81
2022/08/05 02:02:28;;;;;;;;;;;17.70;99.90;;;;;;4983611;28;19929;-80
2022/08/05 02:04:56;;;;;;;;;;;17.60;99.90;;;;;;4974395;28;19926;-81
2022/08/05 02:07:51;;;;;;;;;;;17.60;99.90;;;;;;5103257;23;20533;-80
2022/08/05 02:10:18;;;;;;;;;;;17.50;99.90;;;;;;4966615;28;20008;-81
2022/08/05 02:12:58;;;;;;;;;;;17.60;99.90;;;;;;4947986;28;19926;-81
2022/08/05 02:15:26;;;;;;;;;;;17.60;99.90;;;;;;4968498;28;20029;-81
2022/08/05 02:17:57;;;;;;;;;;;17.60;99.90;;;;;;4967178;28;20068;-81
2022/08/05 02:20:25;;;;;;;;;;;17.60;99.90;;;;;;4957084;28;20036;-81
2022/08/05 02:22:59;;;;;;;;;;;17.60;99.90;;;;;;4954414;28;19930;-81
2022/08/05 02:25:27;;;;;;;;;;;17.50;99.90;;;;;;4966583;28;19941;-81
2022/08/05 02:28:00;;;;;;;;;;;17.60;99.90;;;;;;4951490;28;20002;-81
2022/08/05 02:30:29;;;;;;;;;;;17.60;99.90;;;;;;4982145;28;20049;-81
2022/08/05 02:32:56;;;;;;;;;;;17.60;99.90;;;;;;4962035;28;19973;-81
2022/08/05 02:35:45;;;;;;;;;;;17.60;99.90;;;;;;4983359;28;19926;-81
2022/08/05 02:38:11;;;;;;;;;;;17.60;99.90;;;;;;4963907;28;19933;-81
2022/08/05 02:43:57;;;;;;;;;;;17.60;99.90;;;;;;4957233;28;20330;-81
2022/08/05 02:46:27;;;;;;;;;;;17.60;99.90;;;;;;4957799;28;19928;-82
2022/08/05 02:48:53;;;;;;;;;;;17.60;99.90;;;;;;4964254;28;19929;-80
2022/08/05 02:51:19;;;;;;;;;;;17.60;99.90;;;;;;4948915;28;20211;-81
2022/08/05 02:53:46;;;;;;;;;;;17.50;99.90;;;;;;4969038;28;20507;-82
2022/08/05 02:56:12;;;;;;;;;;;17.50;99.90;;;;;;4986151;28;19975;-81
2022/08/05 02:58:39;;;;;;;;;;;17.60;99.90;;;;;;4964823;28;20368;-81
2022/08/05 03:01:05;;;;;;;;;;;17.60;99.90;;;;;;4955318;28;19978;-81
2022/08/05 03:03:38;;;;;;;;;;;17.50;99.90;;;;;;4959239;28;19946;-81
2022/08/05 03:06:04;;;;;;;;;;;17.50;99.90;;;;;;4964680;28;19992;-81
2022/08/05 03:08:30;;;;;;;;;;;17.50;99.90;;;;;;4933949;28;19930;-81
2022/08/05 03:10:57;;;;;;;;;;;17.50;99.90;;;;;;4936097;28;19932;-81
2022/08/05 03:13:24;;;;;;;;;;;17.50;99.90;;;;;;4953210;28;20312;-81
2022/08/05 03:15:51;;;;;;;;;;;17.50;99.90;;;;;;4936460;28;19926;-81
2022/08/05 03:18:20;;;;;;;;;;;17.50;99.90;;;;;;4969578;28;20008;-81
2022/08/05 03:20:48;;;;;;;;;;;17.60;99.90;;;;;;4963933;28;20295;-81
2022/08/05 03:23:16;;;;;;;;;;;17.50;99.90;;;;;;4953661;28;20293;-81
2022/08/05 03:25:43;;;;;;;;;;;17.50;99.90;;;;;;4949357;28;19984;-81
2022/08/05 03:28:09;;;;;;;;;;;17.60;99.90;;;;;;4931213;28;20285;-81
2022/08/05 03:30:35;;;;;;;;;;;17.60;99.90;;;;;;4955615;23;20117;-80
2022/08/05 03:33:02;;;;;;;;;;;17.60;99.90;;;;;;4957021;28;19934;-81
2022/08/05 03:35:28;;;;;;;;;;;17.60;99.90;;;;;;4931000;29;19927;-81
2022/08/05 03:37:58;;;;;;;;;;;17.60;99.90;;;;;;4949827;28;20076;-81
2022/08/05 03:40:24;;;;;;;;;;;17.50;99.90;;;;;;4941157;28;19927;-81
2022/08/05 03:42:50;;;;;;;;;;;17.60;99.90;;;;;;4963389;28;19945;-81
2022/08/05 03:45:16;;;;;;;;;;;17.50;99.90;;;;;;4960506;28;20325;-82
2022/08/05 03:47:48;;;;;;;;;;;17.60;99.90;;;;;;4932815;28;20024;-83
2022/08/05 03:50:14;;;;;;;;;;;17.60;99.90;;;;;;4947484;28;19937;-81
2022/08/05 03:52:47;;;;;;;;;;;17.60;99.90;;;;;;4932178;28;20308;-81
2022/08/05 03:55:24;;;;;;;;;;;17.50;99.90;;;;;;4951842;28;19933;-81
2022/08/05 03:57:51;;;;;;;;;;;17.60;99.90;;;;;;4945162;28;20255;-81
2022/08/05 04:00:18;;;;;;;;;;;17.60;99.90;;;;;;4959064;28;20335;-81
2022/08/05 04:02:47;;;;;;;;;;;17.20;99.90;;;;;;4937947;28;19926;-82
2022/08/05 04:05:13;;;;;;;;;;;17.60;99.90;;;;;;4937344;28;19926;-81
2022/08/05 04:07:47;;;;;;;;;;;17.60;99.90;;;;;;4936481;28;19930;-81
2022/08/05 04:10:13;;;;;;;;;;;17.60;99.90;;;;;;4962112;28;19937;-80
2022/08/05 04:12:39;;;;;;;;;;;17.60;99.90;;;;;;4948715;28;19922;-81
2022/08/05 04:15:06;;;;;;;;;;;17.70;99.90;;;;;;4921097;28;19926;-81
2022/08/05 04:21:31;;;;;;;;;;;17.40;99.90;;;;;;4991519;28;19925;-81
2022/08/05 04:24:15;;;;;;;;;;;17.40;99.90;;;;;;4959498;28;19926;-81
2022/08/05 04:27:33;;;;;;;;;;;17.50;99.90;;;;;;4953474;28;20622;-82
2022/08/05 04:29:59;;;;;;;;;;;17.30;99.90;;;;;;4947147;28;19937;-82
2022/08/05 04:39:13;;;;;;;;;;;17.50;99.90;;;;;;4952694;28;19930;-81
2022/08/05 04:41:42;;;;;;;;;;;17.50;99.90;;;;;;4926957;28;19930;-83
2022/08/05 04:44:07;;;;;;;;;;;17.50;99.90;;;;;;4916753;29;19937;-81
2022/08/05 04:46:34;;;;;;;;;;;17.50;99.90;;;;;;4928002;29;19930;-81
2022/08/05 04:49:04;;;;;;;;;;;17.50;99.90;;;;;;4933033;28;20346;-81
2022/08/05 04:51:31;;;;;;;;;;;17.50;99.90;;;;;;4933597;29;19934;-81
2022/08/05 04:53:58;;;;;;;;;;;17.50;99.90;;;;;;4917014;29;20018;-82
2022/08/05 04:56:24;;;;;;;;;;;17.50;99.90;;;;;;4917102;29;19966;-81
2022/08/05 04:58:50;;;;;;;;;;;17.50;99.90;;;;;;4932327;29;19980;-81
2022/08/05 05:01:16;;;;;;;;;;;17.50;99.90;;;;;;4916327;29;19958;-81
2022/08/05 05:03:52;;;;;;;;;;;17.50;99.90;;;;;;4913320;29;19937;-80
2022/08/05 05:06:27;;;;;;;;;;;17.50;99.90;;;;;;4954776;28;19937;-81
2022/08/05 05:09:27;;;;;;;;;;;17.50;99.90;;;;;;4935669;28;19930;-81
2022/08/05 05:11:45;;;;;;;;;;;17.50;99.90;;;;;;4936936;29;19931;-81
2022/08/05 05:14:11;;;;;;;;;;;17.50;99.90;;;;;;4928901;28;19933;-82
2022/08/05 05:16:42;;;;;;;;;;;17.50;99.90;;;;;;4924865;29;19981;-83
2022/08/05 05:19:09;;;;;;;;;;;17.50;99.90;;;;;;4927836;29;19993;-82
2022/08/05 05:21:36;;;;;;;;;;;17.50;99.90;;;;;;4917970;29;20346;-82
2022/08/05 05:24:05;;;;;;;;;;;17.50;99.90;;;;;;4931221;28;19934;-82
2022/08/05 05:26:32;;;;;;;;;;;17.50;99.90;;;;;;4924379;29;19935;-82
2022/08/05 05:28:58;;;;;;;;;;;17.50;99.90;;;;;;4916018;29;20428;-82
2022/08/05 05:31:27;;;;;;;;;;;17.50;99.90;;;;;;4929973;28;19933;-83
2022/08/05 05:33:52;;;;;;;;;;;17.50;99.90;;;;;;4921629;28;19926;-82
2022/08/05 05:36:18;;;;;;;;;;;17.50;99.90;;;;;;4963851;28;19980;-82
2022/08/05 05:38:44;;;;;;;;;;;17.50;99.90;;;;;;4922646;28;19945;-82
2022/08/05 05:41:10;;;;;;;;;;;17.50;99.90;;;;;;4934463;28;20418;-82
2022/08/05 05:43:35;;;;;;;;;;;17.50;99.90;;;;;;4920628;28;20012;-82
2022/08/05 05:46:10;;;;;;;;;;;17.50;99.90;;;;;;4944690;28;19950;-82
2022/08/05 05:48:36;;;;;;;;;;;17.10;99.90;;;;;;4931034;28;20483;-83
2022/08/05 05:51:02;;;;;;;;;;;17.50;99.90;;;;;;4937594;28;19978;-82
2022/08/05 05:53:27;;;;;;;;;;;17.50;99.90;;;;;;4938305;28;19949;-82
2022/08/05 05:55:53;;;;;;;;;;;17.50;99.90;;;;;;4934906;28;19933;-82
2022/08/05 05:58:19;;;;;;;;;;;17.50;99.90;;;;;;4935492;28;20040;-82
2022/08/05 06:00:45;;;;;;;;;;;17.50;99.90;;;;;;4932491;28;20390;-82
2022/08/05 06:03:11;;;;;;;;;;;17.50;99.90;;;;;;4929448;29;20017;-82
2022/08/05 06:05:37;;;;;;;;;;;17.50;99.90;;;;;;4944587;28;19930;-82
2022/08/05 06:08:02;;;;;;;;;;;17.50;99.90;;;;;;4953288;28;19992;-82
2022/08/05 06:10:28;;;;;;;;;;;17.60;99.90;;;;;;4944474;28;19973;-82
2022/08/05 06:12:54;;;;;;;;;;;17.60;99.90;;;;;;4933127;28;19926;-82
2022/08/05 06:15:20;;;;;;;;;;;17.60;99.90;;;;;;4979277;28;19981;-82
2022/08/05 06:17:45;;;;;;;;;;;17.90;99.90;;;;;;4943281;28;19933;-81
2022/08/05 06:20:11;;;;;;;;;;;17.90;99.90;;;;;;4933605;28;20011;-81
2022/08/05 06:22:37;;;;;;;;;;;18.10;99.90;;;;;;4923882;28;19930;-82
2022/08/05 06:25:15;;;;;;;;;;;18.30;99.90;;;;;;4929601;28;19970;-82
2022/08/05 06:27:56;;;;;;;;;;;18.40;99.90;;;;;;4960435;28;20028;-82
2022/08/05 06:30:22;;;;;;;;;;;18.50;99.90;;;;;;4946660;28;19984;-82
2022/08/05 06:32:48;;;;;;;;;;;18.60;99.90;;;;;;4927998;28;19934;-82
2022/08/05 06:35:14;;;;;;;;;;;18.60;99.90;;;;;;4946313;28;20444;-81
2022/08/05 06:37:40;;;;;;;;;;;18.60;99.90;;;;;;4948843;28;19990;-81
2022/08/05 06:40:06;;;;;;;;;;;18.60;99.90;;;;;;4961511;28;20622;-81
2022/08/05 06:42:32;;;;;;;;;;;18.70;99.90;;;;;;4958945;28;19930;-82
2022/08/05 06:44:58;;;;;;;;;;;18.70;99.90;;;;;;4927513;28;19936;-81
2022/08/05 06:47:24;;;;;;;;;;;18.80;99.90;;;;;;4926418;28;19926;-81
2022/08/05 06:49:50;;;;;;;;;;;19.00;99.90;;;;;;4935762;28;19926;-82
2022/08/05 06:52:16;;;;;;;;;;;19.10;99.90;;;;;;4950566;28;19977;-80
2022/08/05 06:54:41;;;;;;;;;;;19.20;99.90;;;;;;4936394;28;19976;-81
2022/08/05 06:57:13;;;;;;;;;;;19.40;99.90;;;;;;4955850;28;21315;-81
2022/08/05 06:59:39;;;;;;;;;;;19.40;99.90;;;;;;4938358;29;19934;-80
2022/08/05 07:02:05;;;;;;;;;;;19.30;99.90;;;;;;4930030;28;20330;-81
2022/08/05 07:04:31;;;;;;;;;;;19.40;99.90;;;;;;4920207;28;19941;-81
2022/08/05 07:06:58;;;;;;;;;;;19.60;99.90;;;;;;4951702;28;19926;-81
2022/08/05 07:09:24;;;;;;;;;;;19.70;99.90;;;;;;4969262;28;20072;-81
2022/08/05 07:11:50;;;;;;;;;;;19.80;99.90;;;;;;4922635;28;19942;-81
2022/08/05 07:17:33;;;;;;;;;;;;;;;;;;;;;
2022/08/05 07:23:43;;;;;;;;;;;21.10;99.90;;;;;;4948842;28;19930;-81
2022/08/05 07:26:09;;;;;;;;;;;20.60;99.90;;;;;;4968471;28;20077;-81
2022/08/05 07:28:35;;;;;;;;;;;20.30;99.90;;;;;;4939506;28;20537;-81
2022/08/05 07:31:01;;;;;;;;;;;20.30;99.90;;;;;;4937169;28;19930;-81
2022/08/05 07:33:29;;;;;;;;;;;21.00;99.90;;;;;;4938161;28;19929;-81
2022/08/05 07:35:59;;;;;;;;;;;21.80;99.90;;;;;;4957142;28;19927;-80
2022/08/05 07:38:25;;;;;;;;;;;22.80;99.90;;;;;;4956448;28;20009;-81
2022/08/05 07:40:51;;;;;;;;;;;23.60;99.90;;;;;;4946839;28;19926;-81
2022/08/05 07:43:17;;;;;;;;;;;23.60;99.90;;;;;;4935478;28;19977;-82
2022/08/05 07:45:44;;;;;;;;;;;23.60;99.90;;;;;;4934208;28;20103;-81
2022/08/05 07:48:15;;;;;;;;;;;23.30;99.90;;;;;;4983604;28;19926;-83
2022/08/05 07:50:41;;;;;;;;;;;23.40;99.90;;;;;;4948669;28;19965;-81
2022/08/05 07:53:06;;;;;;;;;;;24.10;99.90;;;;;;4969481;28;19941;-82
2022/08/05 07:55:32;;;;;;;;;;;25.00;99.90;;;;;;4938984;28;19950;-81
2022/08/05 07:58:07;;;;;;;;;;;25.50;99.90;;;;;;4970414;28;19981;-81
2022/08/05 08:00:33;;;;;;;;;;;25.00;99.90;;;;;;4931653;28;20380;-81
2022/08/05 08:02:58;;;;;;;;;;;24.20;99.90;;;;;;4937635;28;19930;-81
2022/08/05 08:05:26;;;;;;;;;;;23.50;99.90;;;;;;4954408;28;20364;-82
2022/08/05 08:08:10;;;;;;;;;;;23.80;99.90;;;;;;4923636;28;19926;-82
2022/08/05 08:10:37;;;;;;;;;;;24.40;99.90;;;;;;4948071;28;19965;-81
2022/08/05 08:13:03;;;;;;;;;;;25.50;99.90;;;;;;4946700;28;19958;-82
2022/08/05 08:15:30;;;;;;;;;;;26.30;99.90;;;;;;4936001;28;19926;-82
2022/08/05 08:17:56;;;;;;;;;;;26.90;99.90;;;;;;4952440;28;20483;-82
2022/08/05 08:20:35;;;;;;;;;;;27.30;99.00;;;;;;4963430;28;20317;-82
2022/08/05 08:23:06;;;;;;;;;;;27.50;97.40;;;;;;4939421;28;20485;-82
2022/08/05 08:25:33;;;;;;;;;;;28.00;93.20;;;;;;4935385;28;19934;-82
2022/08/05 08:28:14;;;;;;;;;;;28.00;90.70;;;;;;4928355;29;20013;-80
2022/08/05 08:30:42;;;;;;;;;;;28.30;90.60;;;;;;4938248;28;20971;-79
2022/08/05 08:33:09;;;;;;;;;;;27.90;88.50;;;;;;4974499;28;19933;-83
2022/08/05 08:35:41;;;;;;;;;;;27.60;89.00;;;;;;4939034;28;20412;-81
2022/08/05 08:38:14;;;;;;;;;;;27.20;90.00;;;;;;4941373;28;19934;-79
2022/08/05 08:43:51;;;;;;;;;;;25.00;91.20;;;;;;4954568;28;19930;-79
2022/08/05 08:46:17;;;;;;;;;;;23.60;96.60;;;;;;4954732;28;19973;-78
2022/08/05 08:48:45;;;;;;;;;;;22.70;99.90;;;;;;4924024;29;20464;-78
2022/08/05 08:51:11;;;;;;;;;;;22.00;99.90;;;;;;4932655;28;19934;-80
2022/08/05 08:53:46;;;;;;;;;;;22.30;99.90;;;;;;4937362;28;20013;-79
2022/08/05 08:56:13;;;;;;;;;;;23.10;99.90;;;;;;4924938;28;19973;-80
2022/08/05 08:59:03;;;;;;;;;;;24.00;99.90;;;;;;4948333;28;19925;-81
2022/08/05 09:01:32;;;;;;;;;;;24.60;99.90;;;;;;4931078;29;19930;-83
2022/08/05 09:03:59;;;;;;;;;;;23.80;99.90;;;;;;4915825;28;19934;-81
2022/08/05 09:06:25;;;;;;;;;;;23.30;99.90;;;;;;4958698;28;19933;-81
2022/08/05 09:08:51;;;;;;;;;;;23.50;99.90;;;;;;4953470;28;19934;-80
2022/08/05 09:11:17;;;;;;;;;;;23.60;99.90;;;;;;4936986;28;19927;-80
2022/08/05 09:13:54;;;;;;;;;;;23.40;99.90;;;;;;4954515;28;19934;-83
2022/08/05 09:16:20;;;;;;;;;;;23.40;99.90;;;;;;4959190;28;19936;-82
2022/08/05 09:18:47;;;;;;;;;;;23.40;99.90;;;;;;4938206;28;20096;-82
2022/08/05 09:21:13;;;;;;;;;;;23.30;99.90;;;;;;4945080;28;19934;-83
2022/08/05 09:23:44;;;;;;;;;;;22.90;99.90;;;;;;4965181;28;19937;-82
2022/08/05 09:26:18;;;;;;;;;;;22.80;99.90;;;;;;4953844;28;19934;-85
2022/08/05 09:28:46;;;;;;;;;;;22.90;99.90;;;;;;4937452;28;20407;-81
2022/08/05 09:31:12;;;;;;;;;;;22.90;99.90;;;;;;4969158;28;19926;-81
2022/08/05 09:33:52;;;;;;;;;;;22.90;99.90;;;;;;4960567;28;19959;-85
2022/08/05 09:36:18;;;;;;;;;;;22.80;99.90;;;;;;4936220;28;19926;-83
2022/08/05 09:39:02;;;;;;;;;;;22.80;99.90;;;;;;4938225;28;19927;-82
2022/08/05 09:42:14;;;;;;;;;;;22.90;99.90;;;;;;4956853;28;19930;-81
2022/08/05 09:44:44;;;;;;;;;;;23.20;99.90;;;;;;4893091;29;20128;-84
2022/08/05 09:47:31;;;;;;;;;;;23.30;99.90;;;;;;4837854;29;19928;-84
2022/08/05 09:50:09;;;;;;;;;;;23.20;99.90;;;;;;4904227;29;19926;-88
2022/08/05 09:53:05;;;;;;;;;;;23.10;99.90;;;;;;4884861;29;19969;-82
2022/08/05 09:55:37;;;;;;;;;;;23.20;99.90;;;;;;4878945;29;19935;-85
2022/08/05 09:58:09;;;;;;;;;;;22.90;99.90;;;;;;4894446;29;19931;-82
2022/08/05 10:00:35;;;;;;;;;;;23.10;99.90;;;;;;4948502;28;19930;-81
2022/08/05 10:03:10;;;;;;;;;;;23.10;99.90;;;;;;4951319;28;19936;-82
2022/08/05 10:06:10;;;;;;;;;;;23.10;99.90;;;;;;4953467;28;19927;-84
2022/08/05 10:08:37;;;;;;;;;;;23.20;99.90;;;;;;4940689;28;20021;-82
2022/08/05 10:11:15;;;;;;;;;;;23.30;99.00;;;;;;4952283;28;20043;-82
2022/08/05 10:13:41;;;;;;;;;;;23.30;98.50;;;;;;4961310;28;19965;-82
2022/08/05 10:16:27;;;;;;;;;;;23.30;97.60;;;;;;4924129;28;19926;-81
2022/08/05 10:18:53;;;;;;;;;;;23.30;96.70;;;;;;4939728;28;19984;-82
2022/08/05 10:21:19;;;;;;;;;;;23.30;96.10;;;;;;4945689;28;20366;-82
2022/08/05 10:23:46;;;;;;;;;;;23.40;96.20;;;;;;4962262;28;19984;-82
2022/08/05 10:26:13;;;;;;;;;;;22.90;95.60;;;;;;4960500;28;19926;-82
2022/08/05 10:28:40;;;;;;;;;;;22.60;95.70;;;;;;4979329;28;19934;-82
2022/08/05 10:31:06;;;;;;;;;;;22.80;94.90;;;;;;4942738;28;20324;-80
2022/08/05 10:33:34;;;;;;;;;;;22.90;95.60;;;;;;4968465;28;19926;-82
2022/08/05 10:36:02;;;;;;;;;;;23.10;95.40;;;;;;4953309;28;19926;-81
2022/08/05 10:38:29;;;;;;;;;;;23.20;94.70;;;;;;4956228;28;20397;-82
2022/08/05 10:41:15;;;;;;;;;;;23.30;93.40;;;;;;4936852;28;19927;-80
2022/08/05 10:43:43;;;;;;;;;;;23.40;92.00;;;;;;4973587;28;19964;-82
2022/08/05 10:46:12;;;;;;;;;;;23.40;90.70;;;;;;4954503;28;19926;-82
2022/08/05 10:48:45;;;;;;;;;;;23.10;90.30;;;;;;4944912;28;20017;-80
2022/08/05 10:51:14;;;;;;;;;;;23.00;88.20;;;;;;4941938;28;20274;-80
2022/08/05 10:53:54;;;;;;;;;;;23.10;92.00;;;;;;4960540;28;20392;-80
2022/08/05 10:56:35;;;;;;;;;;;22.80;90.20;;;;;;4961542;28;19951;-81
2022/08/05 10:59:03;;;;;;;;;;;22.90;89.50;;;;;;4951387;28;20422;-81
2022/08/05 11:01:30;;;;;;;;;;;23.00;89.30;;;;;;4954389;28;19930;-83
2022/08/05 11:04:02;;;;;;;;;;;22.70;89.50;;;;;;4932359;28;20036;-81
2022/08/05 11:06:28;;;;;;;;;;;22.70;90.20;;;;;;4959449;28;19925;-81
2022/08/05 11:09:10;;;;;;;;;;;22.70;90.30;;;;;;4971233;28;19926;-81
2022/08/05 11:11:37;;;;;;;;;;;22.80;90.30;;;;;;4967079;28;20194;-81
2022/08/05 11:14:03;;;;;;;;;;;22.90;90.80;;;;;;4965246;28;20636;-81
2022/08/05 11:16:30;;;;;;;;;;;23.20;90.80;;;;;;4962480;28;19934;-88
2022/08/05 11:19:14;;;;;;;;;;;23.30;87.00;;;;;;4944463;28;19930;-81
2022/08/05 11:21:40;;;;;;;;;;;23.10;83.60;;;;;;4941219;28;19934;-82
2022/08/05 11:24:07;;;;;;;;;;;22.90;84.80;;;;;;4942728;28;19937;-84
2022/08/05 11:26:33;;;;;;;;;;;22.80;86.70;;;;;;4957736;28;19926;-82
2022/08/05 11:29:01;;;;;;;;;;;22.70;82.40;;;;;;4956684;28;19930;-85
2022/08/05 11:31:31;;;;;;;;;;;22.70;82.30;;;;;;4954412;28;20028;-77
2022/08/05 11:33:58;;;;;;;;;;;22.70;83.40;;;;;;4950200;28;19981;-82
2022/08/05 11:36:40;;;;;;;;;;;22.80;83.30;;;;;;4940498;28;19929;-85
2022/08/05 11:39:07;;;;;;;;;;;22.70;85.40;;;;;;4956315;28;20364;-80
2022/08/05 11:41:37;;;;;;;;;;;22.70;87.70;;;;;;4962464;28;20384;-81
2022/08/05 11:44:05;;;;;;;;;;;22.60;86.60;;;;;;4957606;28;20417;-80
2022/08/05 11:46:35;;;;;;;;;;;22.60;86.30;;;;;;4943436;28;19981;-80
2022/08/05 11:49:02;;;;;;;;;;;22.30;86.90;;;;;;4956374;28;20031;-80
2022/08/05 11:51:28;;;;;;;;;;;22.20;86.50;;;;;;4956846;28;20045;-81
2022/08/05 11:53:56;;;;;;;;;;;22.20;87.00;;;;;;4944589;28;19979;-82
2022/08/05 11:56:22;;;;;;;;;;;22.10;88.00;;;;;;4948056;28;19930;-83
2022/08/05 11:58:50;;;;;;;;;;;22.10;87.70;;;;;;4962083;28;19977;-85
2022/08/05 12:01:17;;;;;;;;;;;22.10;87.70;;;;;;4935256;29;19937;-85
2022/08/05 12:03:54;;;;;;;;;;;22.10;88.80;;;;;;4947466;28;20089;-83
2022/08/05 12:06:24;;;;;;;;;;;22.10;90.70;;;;;;4958440;28;19985;-88
2022/08/05 12:08:51;;;;;;;;;;;22.30;90.50;;;;;;4958362;28;20301;-81
2022/08/05 12:11:27;;;;;;;;;;;22.00;90.00;;;;;;4946004;28;19937;-84
2022/08/05 12:13:54;;;;;;;;;;;21.50;91.80;;;;;;4946245;28;19969;-79
2022/08/05 12:16:20;;;;;;;;;;;21.50;92.30;;;;;;4950032;28;20349;-80
2022/08/05 12:18:49;;;;;;;;;;;21.30;93.90;;;;;;4939138;28;19986;-81
2022/08/05 12:21:20;;;;;;;;;;;20.90;94.40;;;;;;4961925;28;19986;-81
2022/08/05 12:24:03;;;;;;;;;;;20.60;94.50;;;;;;4947658;28;20366;-81
2022/08/05 12:26:29;;;;;;;;;;;20.50;96.40;;;;;;4961327;28;20005;-85
2022/08/05 12:28:58;;;;;;;;;;;20.20;95.70;;;;;;4951966;28;19985;-82
2022/08/05 12:31:24;;;;;;;;;;;20.30;97.70;;;;;;4933247;28;19938;-85
2022/08/05 12:36:26;;;;;;;;;;;20.40;98.60;;;;;;5037058;23;19940;-80
2022/08/05 12:38:52;;;;;;;;;;;20.10;98.40;;;;;;4972539;28;20025;-79
2022/08/05 12:41:17;;;;;;;;;;;20.10;98.30;;;;;;4954518;28;19934;-81
2022/08/05 12:43:56;;;;;;;;;;;20.20;96.80;;;;;;4960562;28;20356;-85
2022/08/05 12:46:27;;;;;;;;;;;20.20;99.10;;;;;;4956984;28;19937;-83
2022/08/05 12:48:58;;;;;;;;;;;20.00;99.90;;;;;;4959579;28;19930;-81
2022/08/05 12:51:26;;;;;;;;;;;19.90;99.90;;;;;;4974978;28;19926;-82
2022/08/05 12:54:09;;;;;;;;;;;20.00;99.30;;;;;;4959581;28;19925;-80
2022/08/05 12:57:01;;;;;;;;;;;20.10;99.90;;;;;;4965797;28;19929;-82
2022/08/05 12:59:45;;;;;;;;;;;20.30;99.90;;;;;;4983090;28;19949;-85
2022/08/05 13:02:13;;;;;;;;;;;20.20;97.60;;;;;;4960810;28;19930;-82
2022/08/05 13:04:40;;;;;;;;;;;20.30;98.30;;;;;;4962777;28;20416;-80
2022/08/05 13:07:13;;;;;;;;;;;19.70;98.30;;;;;;4984317;28;20292;-82
2022/08/05 13:10:03;;;;;;;;;;;20.00;97.50;;;;;;4961770;28;20001;-83
2022/08/05 13:12:29;;;;;;;;;;;19.80;98.20;;;;;;4979048;28;20024;-84
2022/08/05 13:14:56;;;;;;;;;;;19.60;99.90;;;;;;4939462;28;20424;-84
2022/08/05 13:17:29;;;;;;;;;;;19.40;99.90;;;;;;4980779;28;19996;-86
2022/08/05 13:20:06;;;;;;;;;;;19.20;99.90;;;;;;4969318;28;19930;-81
2022/08/05 13:22:32;;;;;;;;;;;19.20;99.90;;;;;;4987262;28;19945;-79
2022/08/05 13:24:59;;;;;;;;;;;19.10;99.90;;;;;;4977830;28;19929;-84
2022/08/05 13:27:27;;;;;;;;;;;19.00;99.90;;;;;;4970532;28;19929;-81
2022/08/05 13:29:53;;;;;;;;;;;19.00;99.90;;;;;;4956663;28;19941;-82
2022/08/05 13:32:21;;;;;;;;;;;18.90;99.90;;;;;;4975756;28;20273;-84
2022/08/05 13:37:39;;;;;;;;;;;18.90;99.90;;;;;;4965966;28;20076;-85
2022/08/05 13:40:06;;;;;;;;;;;18.90;99.90;;;;;;4947272;28;19925;-84
2022/08/05 13:42:32;;;;;;;;;;;19.00;99.90;;;;;;4973010;28;19937;-81
2022/08/05 13:44:58;;;;;;;;;;;19.10;99.90;;;;;;4970499;28;19926;-85
2022/08/05 13:47:24;;;;;;;;;;;19.10;99.90;;;;;;4963107;28;19941;-85
2022/08/05 13:49:50;;;;;;;;;;;19.10;99.90;;;;;;4972429;28;19929;-80
2022/08/05 13:52:17;;;;;;;;;;;19.20;99.90;;;;;;4952782;28;20467;-82
2022/08/05 13:54:43;;;;;;;;;;;19.10;99.90;;;;;;4969801;28;19933;-83
2022/08/05 13:57:09;;;;;;;;;;;19.10;99.90;;;;;;4980358;28;20391;-84
2022/08/05 13:59:35;;;;;;;;;;;19.00;99.90;;;;;;4970033;28;19929;-88
2022/08/05 14:02:01;;;;;;;;;;;19.10;99.90;;;;;;4942090;28;19969;-81
2022/08/05 14:07:13;;;;;;;;;;;19.30;99.90;;;;;;4965179;28;20460;-81
2022/08/05 14:09:39;;;;;;;;;;;19.30;99.90;;;;;;4951998;28;20299;-83
2022/08/05 14:12:11;;;;;;;;;;;19.50;99.90;;;;;;4976948;28;20037;-82
2022/08/05 14:18:16;;;;;;;;;;;19.20;99.90;;;;;;4970975;28;19940;-81
2022/08/05 14:23:52;;;;;;;;;;;18.90;99.90;;;;;;4966139;28;20382;-84
2022/08/05 14:26:21;;;;;;;;;;;18.80;99.90;;;;;;4965074;28;19957;-85
2022/08/05 14:28:47;;;;;;;;;;;19.00;99.90;;;;;;4953435;28;19926;-82
2022/08/05 14:31:13;;;;;;;;;;;18.70;99.90;;;;;;4938140;28;19926;-86
2022/08/05 14:33:41;;;;;;;;;;;18.70;99.90;;;;;;4951631;28;19934;-83
2022/08/05 14:36:07;;;;;;;;;;;18.70;99.90;;;;;;4973071;28;20012;-84
2022/08/05 14:38:32;;;;;;;;;;;18.70;99.90;;;;;;4982264;28;20016;-82
2022/08/05 14:40:59;;;;;;;;;;;18.70;99.90;;;;;;4970274;28;20019;-84
2022/08/05 14:43:25;;;;;;;;;;;18.70;99.90;;;;;;4972310;28;19930;-81
2022/08/05 14:45:54;;;;;;;;;;;18.70;99.90;;;;;;4939229;28;19936;-81
2022/08/05 14:48:20;;;;;;;;;;;18.70;99.90;;;;;;4938524;28;20466;-83
2022/08/05 14:50:47;;;;;;;;;;;18.70;99.90;;;;;;4966126;28;20540;-84
2022/08/05 14:53:13;;;;;;;;;;;18.70;99.90;;;;;;4959851;28;20280;-82
2022/08/05 14:58:43;;;;;;;;;;;18.80;99.90;;;;;;4943471;28;19977;-83
2022/08/05 15:01:09;;;;;;;;;;;18.70;99.90;;;;;;4973499;28;20351;-82
2022/08/05 15:03:35;;;;;;;;;;;18.70;99.90;;;;;;4952285;28;20380;-81
2022/08/05 15:06:03;;;;;;;;;;;18.70;99.90;;;;;;4974623;28;19929;-89
2022/08/05 15:08:29;;;;;;;;;;;18.70;99.90;;;;;;4954680;28;20047;-89
2022/08/05 15:10:55;;;;;;;;;;;18.60;99.90;;;;;;4955014;28;19948;-82
2022/08/05 15:13:20;;;;;;;;;;;18.70;99.90;;;;;;4948936;28;20434;-83
2022/08/05 15:15:46;;;;;;;;;;;18.70;99.90;;;;;;4952471;28;19926;-83
2022/08/05 15:18:12;;;;;;;;;;;18.70;99.90;;;;;;4940655;28;20055;-81
2022/08/05 15:20:51;;;;;;;;;;;18.70;99.90;;;;;;4960595;28;19957;-81